sensor_id;sensor_type;location;lat;lon;timestamp;P1;durP1;ratioP1;P2;durP2;ratioP2
75603;SDS011;64187;51.010;13.792;2022-10-31T00:01:32;26.15;;;13.88;;
75603;SDS011;64187;51.010;13.792;2022-10-31T00:06:33;28.13;;;15.00;;
75603;SDS011;64187;51.010;13.792;2022-10-31T00:11:32;22.85;;;13.95;;
75603;SDS011;64187;51.010;13.792;2022-10-31T00:16:31;27.40;;;15.18;;
75603;SDS011;64187;51.010;13.792;2022-10-31T00:21:30;25.98;;;15.35;;
75603;SDS011;64187;51.010;13.792;2022-10-31T00:26:31;26.35;;;17.25;;
75603;SDS011;64187;51.010;13.792;2022-10-31T00:31:30;25.75;;;14.02;;
75603;SDS011;64187;51.010;13.792;2022-10-31T00:36:30;24.33;;;13.88;;
75603;SDS011;64187;51.010;13.792;2022-10-31T00:41:29;24.25;;;13.63;;
75603;SDS011;64187;51.010;13.792;2022-10-31T00:46:28;28.35;;;14.52;;
75603;SDS011;64187;51.010;13.792;2022-10-31T00:51:27;25.73;;;14.45;;
75603;SDS011;64187;51.010;13.792;2022-10-31T00:56:25;22.75;;;13.90;;
75603;SDS011;64187;51.010;13.792;2022-10-31T01:01:24;23.70;;;14.85;;
75603;SDS011;64187;51.010;13.792;2022-10-31T01:06:23;21.80;;;13.52;;
75603;SDS011;64187;51.010;13.792;2022-10-31T01:11:22;22.70;;;12.73;;
75603;SDS011;64187;51.010;13.792;2022-10-31T01:16:22;21.73;;;12.63;;
75603;SDS011;64187;51.010;13.792;2022-10-31T01:21:24;26.98;;;12.93;;
75603;SDS011;64187;51.010;13.792;2022-10-31T01:26:29;18.98;;;11.73;;
75603;SDS011;64187;51.010;13.792;2022-10-31T01:31:33;22.85;;;11.98;;
75603;SDS011;64187;51.010;13.792;2022-10-31T01:36:35;21.48;;;10.27;;
75603;SDS011;64187;51.010;13.792;2022-10-31T01:41:37;22.33;;;11.57;;
75603;SDS011;64187;51.010;13.792;2022-10-31T01:46:42;20.88;;;9.70;;
75603;SDS011;64187;51.010;13.792;2022-10-31T01:51:47;18.08;;;10.70;;
75603;SDS011;64187;51.010;13.792;2022-10-31T01:56:52;15.85;;;10.50;;
75603;SDS011;64187;51.010;13.792;2022-10-31T02:01:54;16.73;;;9.65;;
75603;SDS011;64187;51.010;13.792;2022-10-31T02:06:58;23.77;;;11.50;;
75603;SDS011;64187;51.010;13.792;2022-10-31T02:12:00;20.95;;;11.40;;
75603;SDS011;64187;51.010;13.792;2022-10-31T02:17:01;18.55;;;9.85;;
75603;SDS011;64187;51.010;13.792;2022-10-31T02:22:02;15.05;;;9.77;;
75603;SDS011;64187;51.010;13.792;2022-10-31T02:27:16;18.58;;;10.25;;
75603;SDS011;64187;51.010;13.792;2022-10-31T02:37:47;17.55;;;8.73;;
75603;SDS011;64187;51.010;13.792;2022-10-31T02:42:51;16.17;;;9.70;;
75603;SDS011;64187;51.010;13.792;2022-10-31T02:48:13;15.80;;;8.82;;
75603;SDS011;64187;51.010;13.792;2022-10-31T02:53:17;18.77;;;9.40;;
75603;SDS011;64187;51.010;13.792;2022-10-31T02:58:18;19.70;;;9.93;;
75603;SDS011;64187;51.010;13.792;2022-10-31T03:03:41;19.25;;;10.18;;
75603;SDS011;64187;51.010;13.792;2022-10-31T03:09:22;16.08;;;9.50;;
75603;SDS011;64187;51.010;13.792;2022-10-31T03:14:41;15.38;;;8.30;;
75603;SDS011;64187;51.010;13.792;2022-10-31T03:19:47;16.90;;;9.18;;
75603;SDS011;64187;51.010;13.792;2022-10-31T03:24:50;16.45;;;9.18;;
75603;SDS011;64187;51.010;13.792;2022-10-31T03:29:53;17.70;;;8.18;;
75603;SDS011;64187;51.010;13.792;2022-10-31T03:34:55;15.38;;;8.80;;
75603;SDS011;64187;51.010;13.792;2022-10-31T03:39:58;18.40;;;9.90;;
75603;SDS011;64187;51.010;13.792;2022-10-31T03:45:03;17.38;;;9.15;;
75603;SDS011;64187;51.010;13.792;2022-10-31T03:50:04;20.48;;;8.60;;
75603;SDS011;64187;51.010;13.792;2022-10-31T03:55:08;15.77;;;8.90;;
75603;SDS011;64187;51.010;13.792;2022-10-31T04:00:14;15.85;;;8.07;;
75603;SDS011;64187;51.010;13.792;2022-10-31T04:05:17;15.68;;;8.32;;
75603;SDS011;64187;51.010;13.792;2022-10-31T04:10:19;13.15;;;7.38;;
75603;SDS011;64187;51.010;13.792;2022-10-31T04:15:19;13.75;;;7.70;;
75603;SDS011;64187;51.010;13.792;2022-10-31T04:20:34;16.20;;;7.95;;
75603;SDS011;64187;51.010;13.792;2022-10-31T04:25:36;13.57;;;7.65;;
75603;SDS011;64187;51.010;13.792;2022-10-31T04:30:35;13.57;;;7.55;;
75603;SDS011;64187;51.010;13.792;2022-10-31T04:35:34;11.00;;;7.18;;
75603;SDS011;64187;51.010;13.792;2022-10-31T04:40:33;12.10;;;8.43;;
75603;SDS011;64187;51.010;13.792;2022-10-31T04:46:04;13.52;;;6.97;;
75603;SDS011;64187;51.010;13.792;2022-10-31T04:51:03;15.25;;;7.93;;
75603;SDS011;64187;51.010;13.792;2022-10-31T04:56:03;13.05;;;8.18;;
75603;SDS011;64187;51.010;13.792;2022-10-31T05:01:09;14.60;;;8.77;;
75603;SDS011;64187;51.010;13.792;2022-10-31T05:06:08;14.35;;;7.32;;
75603;SDS011;64187;51.010;13.792;2022-10-31T05:11:11;12.73;;;8.20;;
75603;SDS011;64187;51.010;13.792;2022-10-31T05:16:10;12.68;;;8.20;;
75603;SDS011;64187;51.010;13.792;2022-10-31T05:21:29;12.48;;;7.00;;
75603;SDS011;64187;51.010;13.792;2022-10-31T05:26:33;14.15;;;8.88;;
75603;SDS011;64187;51.010;13.792;2022-10-31T05:31:32;15.48;;;7.50;;
75603;SDS011;64187;51.010;13.792;2022-10-31T05:36:32;12.82;;;7.47;;
75603;SDS011;64187;51.010;13.792;2022-10-31T05:41:41;14.10;;;7.43;;
75603;SDS011;64187;51.010;13.792;2022-10-31T05:46:46;10.82;;;7.32;;
75603;SDS011;64187;51.010;13.792;2022-10-31T05:52:04;20.70;;;8.90;;
75603;SDS011;64187;51.010;13.792;2022-10-31T05:57:10;14.40;;;8.27;;
75603;SDS011;64187;51.010;13.792;2022-10-31T06:02:08;12.77;;;7.72;;
75603;SDS011;64187;51.010;13.792;2022-10-31T06:07:26;14.55;;;7.43;;
75603;SDS011;64187;51.010;13.792;2022-10-31T06:12:25;11.20;;;7.30;;
75603;SDS011;64187;51.010;13.792;2022-10-31T06:17:56;10.52;;;7.47;;
75603;SDS011;64187;51.010;13.792;2022-10-31T06:23:04;13.20;;;7.15;;
75603;SDS011;64187;51.010;13.792;2022-10-31T06:28:05;13.55;;;7.32;;
75603;SDS011;64187;51.010;13.792;2022-10-31T06:33:23;12.23;;;7.45;;
75603;SDS011;64187;51.010;13.792;2022-10-31T06:38:31;13.32;;;7.93;;
75603;SDS011;64187;51.010;13.792;2022-10-31T06:43:31;11.73;;;8.63;;
75603;SDS011;64187;51.010;13.792;2022-10-31T06:48:49;9.98;;;7.38;;
75603;SDS011;64187;51.010;13.792;2022-10-31T06:54:03;11.40;;;7.53;;
75603;SDS011;64187;51.010;13.792;2022-10-31T06:59:02;9.13;;;6.82;;
75603;SDS011;64187;51.010;13.792;2022-10-31T07:04:36;11.90;;;7.15;;
75603;SDS011;64187;51.010;13.792;2022-10-31T07:09:35;8.63;;;7.30;;
75603;SDS011;64187;51.010;13.792;2022-10-31T07:14:35;11.23;;;6.93;;
75603;SDS011;64187;51.010;13.792;2022-10-31T07:19:34;16.05;;;9.93;;
75603;SDS011;64187;51.010;13.792;2022-10-31T07:24:34;18.10;;;11.98;;
75603;SDS011;64187;51.010;13.792;2022-10-31T07:30:02;9.63;;;7.10;;
75603;SDS011;64187;51.010;13.792;2022-10-31T07:35:03;9.88;;;6.22;;
75603;SDS011;64187;51.010;13.792;2022-10-31T07:40:17;9.40;;;5.90;;
75603;SDS011;64187;51.010;13.792;2022-10-31T07:45:18;9.32;;;6.18;;
75603;SDS011;64187;51.010;13.792;2022-10-31T07:50:40;8.43;;;5.80;;
75603;SDS011;64187;51.010;13.792;2022-10-31T07:56:02;8.40;;;5.40;;
75603;SDS011;64187;51.010;13.792;2022-10-31T08:01:01;9.07;;;5.60;;
75603;SDS011;64187;51.010;13.792;2022-10-31T08:06:09;7.13;;;5.28;;
75603;SDS011;64187;51.010;13.792;2022-10-31T08:11:29;10.80;;;6.38;;
75603;SDS011;64187;51.010;13.792;2022-10-31T08:16:29;9.45;;;6.28;;
75603;SDS011;64187;51.010;13.792;2022-10-31T08:21:31;8.25;;;5.80;;
75603;SDS011;64187;51.010;13.792;2022-10-31T08:26:31;8.13;;;5.15;;
75603;SDS011;64187;51.010;13.792;2022-10-31T08:31:31;7.03;;;4.68;;
75603;SDS011;64187;51.010;13.792;2022-10-31T08:36:52;9.70;;;6.25;;
75603;SDS011;64187;51.010;13.792;2022-10-31T08:41:58;10.40;;;5.95;;
75603;SDS011;64187;51.010;13.792;2022-10-31T08:46:56;11.05;;;6.35;;
75603;SDS011;64187;51.010;13.792;2022-10-31T08:51:55;8.60;;;6.28;;
75603;SDS011;64187;51.010;13.792;2022-10-31T08:56:58;11.82;;;8.25;;
75603;SDS011;64187;51.010;13.792;2022-10-31T09:02:17;11.60;;;7.18;;
75603;SDS011;64187;51.010;13.792;2022-10-31T09:07:16;7.88;;;6.45;;
75603;SDS011;64187;51.010;13.792;2022-10-31T09:17:24;8.93;;;6.18;;
75603;SDS011;64187;51.010;13.792;2022-10-31T09:22:44;10.73;;;5.90;;
75603;SDS011;64187;51.010;13.792;2022-10-31T09:27:44;8.50;;;5.63;;
75603;SDS011;64187;51.010;13.792;2022-10-31T09:32:43;8.18;;;5.47;;
75603;SDS011;64187;51.010;13.792;2022-10-31T09:37:41;8.00;;;5.03;;
75603;SDS011;64187;51.010;13.792;2022-10-31T09:43:02;9.68;;;5.35;;
75603;SDS011;64187;51.010;13.792;2022-10-31T09:49:16;9.75;;;5.32;;
75603;SDS011;64187;51.010;13.792;2022-10-31T09:54:05;7.00;;;5.30;;
75603;SDS011;64187;51.010;13.792;2022-10-31T09:59:23;8.40;;;5.13;;
75603;SDS011;64187;51.010;13.792;2022-10-31T10:09:40;17.63;;;10.55;;
75603;SDS011;64187;51.010;13.792;2022-10-31T10:25:38;7.15;;;4.20;;
75603;SDS011;64187;51.010;13.792;2022-10-31T10:35:57;7.32;;;4.28;;
75603;SDS011;64187;51.010;13.792;2022-10-31T10:40:58;7.03;;;4.35;;
75603;SDS011;64187;51.010;13.792;2022-10-31T10:51:58;7.35;;;4.30;;
75603;SDS011;64187;51.010;13.792;2022-10-31T10:57:22;6.97;;;4.00;;
75603;SDS011;64187;51.010;13.792;2022-10-31T11:02:23;8.25;;;4.20;;
75603;SDS011;64187;51.010;13.792;2022-10-31T11:07:24;5.97;;;4.43;;
75603;SDS011;64187;51.010;13.792;2022-10-31T11:12:30;10.32;;;5.82;;
75603;SDS011;64187;51.010;13.792;2022-10-31T11:22:31;15.80;;;10.13;;
75603;SDS011;64187;51.010;13.792;2022-10-31T11:27:30;13.52;;;6.50;;
75603;SDS011;64187;51.010;13.792;2022-10-31T11:32:29;10.57;;;5.85;;
75603;SDS011;64187;51.010;13.792;2022-10-31T11:37:32;8.65;;;5.85;;
75603;SDS011;64187;51.010;13.792;2022-10-31T11:42:40;13.23;;;6.38;;
75603;SDS011;64187;51.010;13.792;2022-10-31T11:47:47;13.85;;;6.53;;
75603;SDS011;64187;51.010;13.792;2022-10-31T11:52:56;9.20;;;5.80;;
75603;SDS011;64187;51.010;13.792;2022-10-31T11:57:55;9.13;;;5.22;;
75603;SDS011;64187;51.010;13.792;2022-10-31T12:03:10;7.75;;;4.97;;
75603;SDS011;64187;51.010;13.792;2022-10-31T12:08:15;11.88;;;6.47;;
75603;SDS011;64187;51.010;13.792;2022-10-31T12:19:05;10.55;;;5.60;;
75603;SDS011;64187;51.010;13.792;2022-10-31T12:24:11;13.98;;;6.15;;
75603;SDS011;64187;51.010;13.792;2022-10-31T12:40:00;14.05;;;6.53;;
75603;SDS011;64187;51.010;13.792;2022-10-31T12:45:09;11.07;;;7.00;;
75603;SDS011;64187;51.010;13.792;2022-10-31T13:00:48;13.82;;;5.97;;
75603;SDS011;64187;51.010;13.792;2022-10-31T13:05:56;11.18;;;6.60;;
75603;SDS011;64187;51.010;13.792;2022-10-31T13:11:15;11.07;;;5.07;;
75603;SDS011;64187;51.010;13.792;2022-10-31T13:16:19;9.35;;;5.65;;
75603;SDS011;64187;51.010;13.792;2022-10-31T13:26:49;9.00;;;4.57;;
75603;SDS011;64187;51.010;13.792;2022-10-31T13:31:50;7.75;;;4.32;;
75603;SDS011;64187;51.010;13.792;2022-10-31T13:36:55;10.30;;;4.32;;
75603;SDS011;64187;51.010;13.792;2022-10-31T13:42:19;9.57;;;4.57;;
75603;SDS011;64187;51.010;13.792;2022-10-31T13:47:40;7.82;;;4.63;;
75603;SDS011;64187;51.010;13.792;2022-10-31T13:52:42;7.65;;;4.68;;
75603;SDS011;64187;51.010;13.792;2022-10-31T13:57:44;12.40;;;5.43;;
75603;SDS011;64187;51.010;13.792;2022-10-31T14:02:45;8.00;;;4.55;;
75603;SDS011;64187;51.010;13.792;2022-10-31T14:07:47;8.32;;;5.43;;
75603;SDS011;64187;51.010;13.792;2022-10-31T14:12:46;11.48;;;5.45;;
75603;SDS011;64187;51.010;13.792;2022-10-31T14:17:47;8.80;;;4.85;;
75603;SDS011;64187;51.010;13.792;2022-10-31T14:22:49;8.30;;;4.80;;
75603;SDS011;64187;51.010;13.792;2022-10-31T14:27:48;7.68;;;5.50;;
75603;SDS011;64187;51.010;13.792;2022-10-31T14:33:25;9.23;;;4.75;;
75603;SDS011;64187;51.010;13.792;2022-10-31T14:38:23;9.68;;;4.65;;
75603;SDS011;64187;51.010;13.792;2022-10-31T14:49:20;7.18;;;4.68;;
75603;SDS011;64187;51.010;13.792;2022-10-31T14:54:41;10.27;;;5.43;;
75603;SDS011;64187;51.010;13.792;2022-10-31T14:59:46;11.75;;;5.03;;
75603;SDS011;64187;51.010;13.792;2022-10-31T15:04:53;10.50;;;5.53;;
75603;SDS011;64187;51.010;13.792;2022-10-31T15:09:55;11.25;;;4.80;;
75603;SDS011;64187;51.010;13.792;2022-10-31T15:15:09;8.85;;;4.68;;
75603;SDS011;64187;51.010;13.792;2022-10-31T15:20:11;8.63;;;5.28;;
75603;SDS011;64187;51.010;13.792;2022-10-31T15:25:19;12.05;;;4.85;;
75603;SDS011;64187;51.010;13.792;2022-10-31T15:30:24;9.50;;;4.90;;
75603;SDS011;64187;51.010;13.792;2022-10-31T15:35:26;12.23;;;5.43;;
75603;SDS011;64187;51.010;13.792;2022-10-31T15:40:27;14.52;;;6.72;;
75603;SDS011;64187;51.010;13.792;2022-10-31T15:45:27;11.60;;;6.85;;
75603;SDS011;64187;51.010;13.792;2022-10-31T15:50:36;14.82;;;6.45;;
75603;SDS011;64187;51.010;13.792;2022-10-31T15:55:44;12.43;;;6.47;;
75603;SDS011;64187;51.010;13.792;2022-10-31T16:06:22;16.23;;;6.35;;
75603;SDS011;64187;51.010;13.792;2022-10-31T16:11:29;22.42;;;13.55;;
75603;SDS011;64187;51.010;13.792;2022-10-31T16:16:32;18.73;;;9.68;;
75603;SDS011;64187;51.010;13.792;2022-10-31T16:21:35;16.98;;;8.63;;
75603;SDS011;64187;51.010;13.792;2022-10-31T16:26:35;13.55;;;7.97;;
75603;SDS011;64187;51.010;13.792;2022-10-31T16:31:38;13.52;;;8.50;;
75603;SDS011;64187;51.010;13.792;2022-10-31T16:36:38;17.10;;;10.00;;
75603;SDS011;64187;51.010;13.792;2022-10-31T16:41:39;16.00;;;9.52;;
75603;SDS011;64187;51.010;13.792;2022-10-31T16:46:39;19.02;;;10.40;;
75603;SDS011;64187;51.010;13.792;2022-10-31T16:51:38;17.35;;;10.25;;
75603;SDS011;64187;51.010;13.792;2022-10-31T16:56:37;18.23;;;10.75;;
75603;SDS011;64187;51.010;13.792;2022-10-31T17:01:36;17.90;;;9.57;;
75603;SDS011;64187;51.010;13.792;2022-10-31T17:06:37;13.30;;;9.60;;
75603;SDS011;64187;51.010;13.792;2022-10-31T17:11:35;16.17;;;10.50;;
75603;SDS011;64187;51.010;13.792;2022-10-31T17:16:42;19.65;;;12.02;;
75603;SDS011;64187;51.010;13.792;2022-10-31T17:21:41;27.80;;;15.80;;
75603;SDS011;64187;51.010;13.792;2022-10-31T17:26:40;28.30;;;16.23;;
75603;SDS011;64187;51.010;13.792;2022-10-31T17:31:39;28.42;;;16.77;;
75603;SDS011;64187;51.010;13.792;2022-10-31T17:36:39;33.58;;;19.65;;
75603;SDS011;64187;51.010;13.792;2022-10-31T17:41:38;38.90;;;23.40;;
75603;SDS011;64187;51.010;13.792;2022-10-31T17:46:37;41.80;;;24.35;;
75603;SDS011;64187;51.010;13.792;2022-10-31T17:51:36;43.75;;;25.55;;
75603;SDS011;64187;51.010;13.792;2022-10-31T17:56:35;39.70;;;23.38;;
75603;SDS011;64187;51.010;13.792;2022-10-31T18:01:34;44.65;;;23.48;;
75603;SDS011;64187;51.010;13.792;2022-10-31T18:06:33;39.15;;;22.55;;
75603;SDS011;64187;51.010;13.792;2022-10-31T18:11:32;35.47;;;22.25;;
75603;SDS011;64187;51.010;13.792;2022-10-31T18:16:30;33.42;;;20.73;;
75603;SDS011;64187;51.010;13.792;2022-10-31T18:21:30;26.80;;;17.23;;
75603;SDS011;64187;51.010;13.792;2022-10-31T18:26:30;25.65;;;17.10;;
75603;SDS011;64187;51.010;13.792;2022-10-31T18:31:29;28.65;;;18.40;;
75603;SDS011;64187;51.010;13.792;2022-10-31T18:36:27;28.27;;;18.08;;
75603;SDS011;64187;51.010;13.792;2022-10-31T18:41:26;26.42;;;17.95;;
75603;SDS011;64187;51.010;13.792;2022-10-31T18:46:25;31.02;;;18.60;;
75603;SDS011;64187;51.010;13.792;2022-10-31T18:51:25;27.15;;;17.85;;
75603;SDS011;64187;51.010;13.792;2022-10-31T18:56:24;25.80;;;16.65;;
75603;SDS011;64187;51.010;13.792;2022-10-31T19:01:25;25.00;;;16.20;;
75603;SDS011;64187;51.010;13.792;2022-10-31T19:06:24;24.70;;;14.23;;
75603;SDS011;64187;51.010;13.792;2022-10-31T19:11:24;24.17;;;14.63;;
75603;SDS011;64187;51.010;13.792;2022-10-31T19:16:23;22.08;;;13.85;;
75603;SDS011;64187;51.010;13.792;2022-10-31T19:21:22;22.52;;;15.02;;
75603;SDS011;64187;51.010;13.792;2022-10-31T19:26:22;23.52;;;15.32;;
75603;SDS011;64187;51.010;13.792;2022-10-31T19:31:22;22.88;;;15.23;;
75603;SDS011;64187;51.010;13.792;2022-10-31T19:36:21;23.48;;;12.85;;
75603;SDS011;64187;51.010;13.792;2022-10-31T19:41:23;23.73;;;12.90;;
75603;SDS011;64187;51.010;13.792;2022-10-31T19:46:23;23.52;;;13.75;;
75603;SDS011;64187;51.010;13.792;2022-10-31T19:51:42;15.77;;;11.30;;
75603;SDS011;64187;51.010;13.792;2022-10-31T19:56:41;19.50;;;13.30;;
75603;SDS011;64187;51.010;13.792;2022-10-31T20:01:40;25.40;;;13.85;;
75603;SDS011;64187;51.010;13.792;2022-10-31T20:06:39;20.83;;;13.57;;
75603;SDS011;64187;51.010;13.792;2022-10-31T20:11:38;29.95;;;15.57;;
75603;SDS011;64187;51.010;13.792;2022-10-31T20:16:38;22.58;;;13.68;;
75603;SDS011;64187;51.010;13.792;2022-10-31T20:21:37;23.38;;;13.43;;
75603;SDS011;64187;51.010;13.792;2022-10-31T20:26:38;23.33;;;13.57;;
75603;SDS011;64187;51.010;13.792;2022-10-31T20:31:38;17.58;;;12.95;;
75603;SDS011;64187;51.010;13.792;2022-10-31T20:36:37;22.17;;;11.65;;
75603;SDS011;64187;51.010;13.792;2022-10-31T20:41:36;22.70;;;13.63;;
75603;SDS011;64187;51.010;13.792;2022-10-31T20:46:35;19.52;;;12.27;;
75603;SDS011;64187;51.010;13.792;2022-10-31T20:51:34;20.23;;;12.77;;
75603;SDS011;64187;51.010;13.792;2022-10-31T20:56:33;21.00;;;12.88;;
75603;SDS011;64187;51.010;13.792;2022-10-31T21:01:32;23.17;;;13.45;;
75603;SDS011;64187;51.010;13.792;2022-10-31T21:06:34;22.55;;;14.05;;
75603;SDS011;64187;51.010;13.792;2022-10-31T21:11:33;24.80;;;14.45;;
75603;SDS011;64187;51.010;13.792;2022-10-31T21:16:31;24.50;;;14.52;;
75603;SDS011;64187;51.010;13.792;2022-10-31T21:21:34;26.77;;;14.27;;
75603;SDS011;64187;51.010;13.792;2022-10-31T21:26:36;14.57;;;7.95;;
75603;SDS011;64187;51.010;13.792;2022-10-31T21:31:37;27.40;;;15.52;;
75603;SDS011;64187;51.010;13.792;2022-10-31T21:36:37;25.20;;;14.90;;
75603;SDS011;64187;51.010;13.792;2022-10-31T21:41:36;26.35;;;15.50;;
75603;SDS011;64187;51.010;13.792;2022-10-31T21:46:35;27.20;;;16.73;;
75603;SDS011;64187;51.010;13.792;2022-10-31T21:51:36;23.10;;;15.25;;
75603;SDS011;64187;51.010;13.792;2022-10-31T21:56:35;25.70;;;15.98;;
75603;SDS011;64187;51.010;13.792;2022-10-31T22:01:34;26.17;;;14.40;;
75603;SDS011;64187;51.010;13.792;2022-10-31T22:06:34;24.95;;;15.77;;
75603;SDS011;64187;51.010;13.792;2022-10-31T22:11:33;22.90;;;14.65;;
75603;SDS011;64187;51.010;13.792;2022-10-31T22:16:33;25.50;;;15.18;;
75603;SDS011;64187;51.010;13.792;2022-10-31T22:21:41;23.25;;;15.23;;
75603;SDS011;64187;51.010;13.792;2022-10-31T22:26:41;28.10;;;17.00;;
75603;SDS011;64187;51.010;13.792;2022-10-31T22:31:40;24.65;;;15.07;;
75603;SDS011;64187;51.010;13.792;2022-10-31T22:36:42;22.65;;;14.88;;
75603;SDS011;64187;51.010;13.792;2022-10-31T22:41:41;25.92;;;14.68;;
75603;SDS011;64187;51.010;13.792;2022-10-31T22:46:40;23.52;;;16.00;;
75603;SDS011;64187;51.010;13.792;2022-10-31T22:51:39;27.05;;;16.27;;
75603;SDS011;64187;51.010;13.792;2022-10-31T22:56:39;29.63;;;18.20;;
75603;SDS011;64187;51.010;13.792;2022-10-31T23:01:37;28.40;;;16.17;;
75603;SDS011;64187;51.010;13.792;2022-10-31T23:06:37;32.40;;;17.35;;
75603;SDS011;64187;51.010;13.792;2022-10-31T23:11:37;32.40;;;17.15;;
75603;SDS011;64187;51.010;13.792;2022-10-31T23:16:44;29.33;;;19.65;;
75603;SDS011;64187;51.010;13.792;2022-10-31T23:21:45;35.50;;;19.52;;
75603;SDS011;64187;51.010;13.792;2022-10-31T23:26:53;35.42;;;20.15;;
75603;SDS011;64187;51.010;13.792;2022-10-31T23:37:34;32.28;;;18.42;;
75603;SDS011;64187;51.010;13.792;2022-10-31T23:42:34;30.25;;;17.50;;
75603;SDS011;64187;51.010;13.792;2022-10-31T23:47:33;33.40;;;19.27;;
75603;SDS011;64187;51.010;13.792;2022-10-31T23:52:35;31.17;;;21.92;;
75603;SDS011;64187;51.010;13.792;2022-10-31T23:57:34;43.33;;;26.77;;
